CheckWX is a tool to help pilots better visualize weather data.  It is not intended as a substitute for an official pre-flight weather briefing.

08:39:35 UTC

KAXH METAR
Houston-Southwest Airport
Houston, Texas, USA
Current

25 mins ago

KAXH 060815Z AUTO 00000KT 1/4SM FG OVC005 15/15 A3002 RMK AO2 T01450145
Observed
Dec-6 @ 08:15 UTC
Visibility
1/4 SM
Flight Rules
LIFR
Conditions
Fog
Cloud Levels
  • Overcast at 500' AGL
Temperature
15°C / 59°F
Dewpoint
15°C / 59°F
Humidity
100%
Altimeter
30.02" Hg
Pressure
1016.62 hPa
Previous

45 mins ago

KAXH 060755Z AUTO 00000KT 1/2SM FG SCT005 OVC026 15/15 A3002 RMK AO2 T01490148
Observed
Dec-6 @ 07:55 UTC
Visibility
1/2 SM
Flight Rules
LIFR
Conditions
Fog
Cloud Levels
  • Scattered at 500' AGL
  • Overcast at 2,600' AGL
Temperature
15°C / 59°F
Dewpoint
15°C / 59°F
Humidity
100%
Altimeter
30.02" Hg
Pressure
1016.62 hPa
Previous

1 hour ago

KAXH 060735Z AUTO 00000KT 1 3/4SM BR VV007 15/15 A3002 RMK AO2 T01510151
Observed
Dec-6 @ 07:35 UTC
Visibility
1 3/4 SM
Flight Rules
LIFR
Conditions
Mist
Cloud Levels
  • Vertical visibility at 700' AGL
Temperature
15°C / 59°F
Dewpoint
15°C / 59°F
Humidity
100%
Altimeter
30.02" Hg
Pressure
1016.62 hPa